Flight Track Log - Related Links

Times and Time Zones

All times are in EDT time to prevent confusion due to time zone crossing. See the DAL2164 flight status page for this flight to view local times or setup timezone preferences in your user account.

Time Position Orientation Groundspeed Altitude Reporting Facility
EDT Latitude Longitude Course Direction KTS MPH feet Rate Location/Type
Sat 04:47:44 PM 45.5983 -122.6083 90° East 167 192 800  Level Seattle Center
Sat 04:48:51 PM 45.6261 -122.6928 295° West 251 289 3,500 2,268 Climbing Seattle Center
Sat 04:49:51 PM 45.6556 -122.7672 300° West 249 287 5,600 2,609 Climbing Seattle Center
Sat 04:50:00 PM 45.6572 -122.0903 60° Northeast  Level FlightAware Approximate
Sat 04:50:46 PM 45.7239 -122.7703 358° North 287 330 8,500  Level Seattle Center
Sat 04:51:00 PM 45.7129 -121.9166 66° East  Level FlightAware Approximate
Sat 04:51:54 PM 45.7681 -122.6842 54° Northeast 306 352 10,500  Level Seattle Center
Sat 04:52:00 PM 45.7334 -121.7313 90° East  Level FlightAware Approximate
Sat 04:52:55 PM 45.7553 -122.5167 96° East 362 417 12,100  Level Seattle Center
Sat 04:53:00 PM 45.7334 -121.5398 90° East  Level FlightAware Approximate
Sat 04:53:56 PM 45.7558 -122.3581 90° East 396 456 13,800  Level Seattle Center
Sat 04:54:57 PM 45.7536 -122.1908 91° East 418 481 15,600 1,820 Climbing Seattle Center
Sat 04:55:58 PM 45.7514 -122.0186 91° East 431 496 17,500 1,525 Climbing Seattle Center
Sat 04:56:59 PM 45.7472 -121.8578 92° East 443 510 18,700 1,426 Climbing Seattle Center
Sat 04:58:00 PM 45.7464 -121.6756 90° East 458 527 20,400 1,659 Climbing Seattle Center
Sat 04:59:02 PM 45.7464 -121.4903 90° East 465 535 22,100 1,610 Climbing Seattle Center
Sat 05:00:03 PM 45.7431 -121.2606 91° East 480 552 23,700 1,525 Climbing Seattle Center
Sat 05:01:04 PM 45.7428 -121.0653 90° East 488 562 25,200 1,574 Climbing Seattle Center
Sat 05:02:05 PM 45.7403 -120.8694 91° East 492 566 26,900 1,574 Climbing Seattle Center
Sat 05:03:06 PM 45.7378 -120.6753 91° East 490 564 28,400 1,525 Climbing Seattle Center
Sat 05:04:07 PM 45.7344 -120.4803 91° East 489 563 30,000 1,279 Climbing Seattle Center
Sat 05:05:08 PM 45.7317 -120.2861 91° East 488 562 31,000 492 Climbing Seattle Center
Sat 05:06:09 PM 45.7272 -120.0917 92° East 488 562 31,000  Level Seattle Center
Sat 05:07:10 PM 45.7242 -119.8972 91° East 488 562 31,000  Level Seattle Center
Sat 05:08:11 PM 45.7206 -119.7047 91° East 484 557 31,000  Level Seattle Center
Sat 05:09:12 PM 45.7147 -119.5133 92° East 481 554 31,000  Level Seattle Center
Sat 05:10:13 PM 45.7103 -119.3214 92° East 481 554 31,000  Level Seattle Center
Sat 05:11:14 PM 45.7056 -119.1294 92° East 482 555 31,000  Level Seattle Center
Sat 05:12:15 PM 45.7003 -118.9369 92° East 484 557 31,000  Level Seattle Center
Sat 05:13:16 PM 45.7108 -118.7456 85° East 483 556 31,000  Level Seattle Center
Sat 05:14:17 PM 45.7197 -118.5531 86° East 485 558 31,000  Level Seattle Center
Sat 05:15:19 PM 45.7294 -118.3547 86° East 484 557 31,000  Level Seattle Center
Sat 05:16:20 PM 45.7383 -118.1619 86° East 486 559 31,000  Level Seattle Center
Sat 05:17:21 PM 45.7481 -117.9314 86° East 487 560 31,000  Level Seattle Center
Sat 05:18:22 PM 45.7581 -117.7389 86° East 488 562 31,000  Level Seattle Center
Sat 05:19:23 PM 45.7656 -117.5464 87° East 487 560 31,000  Level Seattle Center
Sat 05:20:24 PM 45.7728 -117.3533 87° East 488 562 31,000  Level Seattle Center
Sat 05:21:25 PM 45.7803 -117.1600 87° East 489 563 31,000  Level Seattle Center
Sat 05:22:26 PM 45.7869 -116.9667 87° East 489 563 31,000  Level Seattle Center
Sat 05:23:27 PM 45.7942 -116.7747 87° East 486 559 31,000  Level Seattle Center
Sat 05:24:28 PM 45.8000 -116.5833 87° East 484 557 31,000  Level Seattle Center
Sat 05:25:29 PM 45.8058 -116.3892 87° East 487 560 31,000  Level Seattle Center
Sat 05:26:30 PM 45.8133 -116.1958 87° East 488 562 31,000  Level Seattle Center
Sat 05:27:31 PM 45.8186 -116.0011 88° East 490 564 31,000  Level Seattle Center
Sat 05:28:32 PM 45.8247 -115.7672 88° East 491 565 31,000  Level Seattle Center
Sat 05:29:33 PM 45.8294 -115.5733 88° East 490 564 31,000  Level Seattle Center
Sat 05:30:34 PM 45.8344 -115.3725 88° East 489 563 31,000  Level Seattle Center
Sat 05:31:23 PM 45.8369 -115.2167 89° East 490 564 31,000  Level Salt Lake Center
Sat 05:32:25 PM 45.8414 -115.0297 88° East 490 564 31,000  Level Salt Lake Center
Sat 05:33:27 PM 45.8444 -114.8114 89° East 490 564 31,000  Level Salt Lake Center
Sat 05:34:29 PM 45.8478 -114.6247 88° East 489 563 31,000  Level Salt Lake Center
Sat 05:35:31 PM 45.8536 -114.4089 88° East 485 558 31,000 -48 Level Salt Lake Center
Sat 05:36:33 PM 45.8542 -114.2083 90° East 493 567 30,900  Descending Salt Lake Center
Sat 05:37:35 PM 45.8567 -114.0153 89° East 488 562 31,000 48 Climbing Salt Lake Center
Sat 05:38:37 PM 45.8586 -113.8222 89° East 486 559 31,000  Level Salt Lake Center
Sat 05:39:39 PM 45.8594 -113.6219 90° East 488 562 31,000  Level Salt Lake Center
Sat 05:40:41 PM 45.8608 -113.4275 89° East 487 560 31,000  Level Salt Lake Center
Sat 05:41:43 PM 45.8614 -113.2314 90° East 490 564 31,000  Level Salt Lake Center
Sat 05:42:45 PM 45.8619 -112.9953 90° East 493 567 31,000  Level Salt Lake Center
Sat 05:43:47 PM 45.8625 -112.8000 90° East 490 564 31,000  Level Salt Lake Center
Sat 05:44:49 PM 45.8619 -112.6061 90° East 487 560 31,000  Level Salt Lake Center
Sat 05:45:51 PM 45.8617 -112.4114 90° East 488 562 31,000  Level Salt Lake Center
Sat 05:46:53 PM 45.8608 -112.2164 90° East 488 562 31,000  Level Salt Lake Center
Sat 05:47:55 PM 45.8603 -112.0208 90° East 490 564 31,000  Level Salt Lake Center
Sat 05:48:57 PM 45.8600 -111.8275 90° East 485 558 31,000  Level Salt Lake Center
Sat 05:49:59 PM 45.8606 -111.5950 90° East 485 558 31,000  Level Salt Lake Center
Sat 05:51:00 PM 45.8597 -111.4011 90° East 484 557 31,000  Level Salt Lake Center
Sat 05:52:02 PM 45.8600 -111.2003 90° East 492 566 31,000  Level Salt Lake Center
Sat 05:53:04 PM 45.8564 -110.9908 91° East 500 575 31,000  Level Salt Lake Center
Sat 05:54:06 PM 45.8544 -110.7917 91° East 496 571 31,000  Level Salt Lake Center
Sat 05:55:08 PM 45.8519 -110.5975 91° East 488 562 31,000  Level Salt Lake Center
Sat 05:56:10 PM 45.8492 -110.4058 91° East 487 560 31,000  Level Salt Lake Center
Sat 05:57:12 PM 45.8467 -110.2089 91° East 495 570 31,000  Level Salt Lake Center
Sat 05:58:13 PM 45.8433 -110.0136 91° East 492 566 31,000  Level Salt Lake Center
Sat 05:59:15 PM 45.8408 -109.7783 91° East 493 567 31,000  Level Salt Lake Center
Sat 06:00:17 PM 45.8364 -109.5833 92° East 490 564 31,000  Level Salt Lake Center
Sat 06:01:19 PM 45.8319 -109.3889 92° East 490 564 31,000  Level Salt Lake Center
Sat 06:02:20 PM 45.8267 -109.1944 92° East 489 563 31,000  Level Salt Lake Center
Sat 06:03:22 PM 45.8217 -109.0006 92° East 488 562 31,000  Level Salt Lake Center
Sat 06:04:24 PM 45.8158 -108.8061 92° East 487 560 31,000  Level Salt Lake Center
Sat 06:05:26 PM 45.8089 -108.6111 93° East 489 563 31,000  Level Salt Lake Center
Sat 06:06:27 PM 45.7936 -108.4067 96° East 515 593 31,000  Level Salt Lake Center
Sat 06:07:29 PM 45.7764 -108.1722 96° East 496 571 31,000  Level Salt Lake Center
Sat 06:08:31 PM 45.7603 -107.9739 97° East 500 575 31,000  Level Salt Lake Center
Sat 06:09:33 PM 45.7447 -107.7761 96° East 498 573 31,000  Level Salt Lake Center
Sat 06:10:34 PM 45.7281 -107.5814 97° East 493 567 31,000  Level Salt Lake Center
Sat 06:11:36 PM 45.7114 -107.3883 97° East 489 563 31,000  Level Salt Lake Center
Sat 06:12:38 PM 45.7111 -107.1919 90° East 493 567 31,000  Level Salt Lake Center
Sat 06:13:39 PM 45.7156 -106.9939 88° East 497 572 31,000  Level Salt Lake Center
Sat 06:14:41 PM 45.7197 -106.7992 88° East 494 568 31,000  Level Salt Lake Center
Sat 06:15:43 PM 45.7244 -106.5639 88° East 493 567 31,000  Level Salt Lake Center
Sat 06:16:44 PM 45.7286 -106.3692 88° East 492 566 31,000  Level Salt Lake Center
Sat 06:17:46 PM 45.7339 -106.1756 88° East 490 564 31,000  Level Salt Lake Center
Sat 06:18:47 PM 45.7431 -105.9875 86° East 480 552 31,000  Level Salt Lake Center
Sat 06:19:49 PM 45.7469 -105.7964 88° East 481 554 31,000  Level Salt Lake Center
Sat 06:20:51 PM 45.7519 -105.6053 88° East 481 554 31,000  Level Salt Lake Center
Sat 06:21:52 PM 45.7569 -105.4139 88° East 482 555 31,000  Level Salt Lake Center
Sat 06:22:54 PM 45.7625 -105.2231 88° East 483 556 31,000  Level Salt Lake Center
Sat 06:23:55 PM 45.7678 -104.9922 88° East 483 556 31,000  Level Salt Lake Center
Sat 06:24:57 PM 45.7733 -104.8011 88° East 483 556 31,000  Level Salt Lake Center
Sat 06:25:58 PM 45.7803 -104.6111 87° East 480 552 31,000  Level Salt Lake Center
Sat 06:27:00 PM 45.7858 -104.4331 87° East 481 554 31,000 -49 Level Salt Lake Center
Sat 06:28:01 PM 45.7917 -104.2439 87° East 479 551 30,900  Descending Salt Lake Center
Sat 06:29:03 PM 45.7983 -104.0556 87° East 477 549 31,000 48 Climbing Salt Lake Center
Sat 06:30:05 PM 45.8061 -103.8286 87° East 478 550 31,000  Level Salt Lake Center
Sat 06:31:06 PM 45.8150 -103.6414 86° East 476 548 31,000  Level Salt Lake Center
Sat 06:32:08 PM 45.8236 -103.4547 86° East 473 544 31,000  Level Salt Lake Center
Sat 06:33:09 PM 45.8317 -103.2672 86° East 473 544 31,000  Level Salt Lake Center
Sat 06:34:11 PM 45.8356 -103.0767 88° East 477 549 31,000  Level Salt Lake Center
Sat 06:35:13 PM 45.8322 -102.8842 91° East 480 552 31,000  Level Salt Lake Center
Sat 06:36:14 PM 45.8214 -102.6953 95° East 481 554 31,000  Level Salt Lake Center
Sat 06:37:16 PM 45.8036 -102.4672 96° East 482 555 31,000 -48 Level Salt Lake Center
Sat 06:38:18 PM 45.7903 -102.2714 96° East 486 559 30,900  Descending Salt Lake Center
Sat 06:39:19 PM 45.7625 -102.0797 102° East 492 566 31,000 49 Climbing Salt Lake Center
Sat 06:40:21 PM 45.7328 -101.8867 102° East 496 571 31,000  Level Salt Lake Center
Sat 06:41:47 PM 45.6861 -101.6175 104° East 495 570 31,000  Level Minneapolis Center
Sat 06:42:49 PM 45.6544 -101.4264 103° East 496 571 31,000  Level Minneapolis Center
Sat 06:43:51 PM 45.6244 -101.2339 102° East 497 572 31,000  Level Minneapolis Center
Sat 06:44:53 PM 45.5933 -101.0422 103° East 496 571 31,000  Level Minneapolis Center
Sat 06:45:54 PM 45.5625 -100.8497 103° East 496 571 31,000 49 Level Minneapolis Center
Sat 06:46:56 PM 45.5278 -100.6175 102° East 497 572 31,100  Climbing Minneapolis Center
Sat 06:47:58 PM 45.4969 -100.4256 103° East 496 571 31,000 -48 Descending Minneapolis Center
Sat 06:49:00 PM 45.4642 -100.2364 104° East 491 565 31,000  Level Minneapolis Center
Sat 06:50:02 PM 45.4325 -100.0461 103° East 490 564 31,000  Level Minneapolis Center
Sat 06:51:03 PM 45.4061 -99.8919 104° East 493 567 31,000  Level Minneapolis Center
Sat 06:52:06 PM 45.3647 -99.6597 104° East 498 573 31,000  Level Minneapolis Center
Sat 06:53:07 PM 45.3306 -99.4669 104° East 499 574 31,000  Level Minneapolis Center
Sat 06:54:09 PM 45.2958 -99.2731 104° East 501 577 31,000  Level Minneapolis Center
Sat 06:55:11 PM 45.2542 -99.0425 104° East 502 578 31,000  Level Minneapolis Center
Sat 06:56:13 PM 45.2186 -98.8508 105° East 501 577 31,000  Level Minneapolis Center
Sat 06:57:15 PM 45.1842 -98.6581 104° East 503 579 31,000  Level Minneapolis Center
Sat 06:58:17 PM 45.1475 -98.4647 105° East 506 582 31,000  Level Minneapolis Center
Sat 06:59:19 PM 45.1122 -98.2742 105° East 504 580 31,000  Level Minneapolis Center
Sat 07:00:21 PM 45.0750 -98.0831 105° East 503 579 31,000  Level Minneapolis Center
Sat 07:01:23 PM 45.0369 -97.8814 105° East 504 580 31,000  Level Minneapolis Center
Sat 07:02:25 PM 44.9992 -97.6922 106° East 502 578 31,000 -97 Level Minneapolis Center
Sat 07:03:27 PM 44.9639 -97.4603 102° East 503 579 30,800 -871 Descending Minneapolis Center
Sat 07:04:29 PM 44.9489 -97.2647 96° East 501 577 29,200 -871 Descending Minneapolis Center
Sat 07:05:31 PM 44.9328 -97.0714 97° East 497 572 29,000 -97 Descending Minneapolis Center
Sat 07:06:33 PM 44.9158 -96.8789 97° East 495 570 29,000  Level Minneapolis Center
Sat 07:07:35 PM 44.9019 -96.6856 96° East 495 570 29,000  Level Minneapolis Center
Sat 07:08:37 PM 44.8869 -96.4928 96° East 493 567 29,000  Level Minneapolis Center
Sat 07:09:39 PM 44.8733 -96.2997 96° East 494 568 29,000  Level Minneapolis Center
Sat 07:10:41 PM 44.8394 -96.0708 102° East 495 570 29,000  Level Minneapolis Center
Sat 07:11:43 PM 44.8264 -95.9158 97° East 495 570 29,000 -823 Level Minneapolis Center
Sat 07:12:45 PM 44.8114 -95.6844 95° East 494 568 27,300 -1,403 Descending Minneapolis Center
Sat 07:13:47 PM 44.7981 -95.4889 95° East 498 573 26,100 -919 Descending Minneapolis Center
Sat 07:14:49 PM 44.7869 -95.3344 96° East 498 573 25,400 -1,355 Descending Minneapolis Center
Sat 07:15:51 PM 44.7694 -95.1069 96° East 490 564 23,300 -2,177 Descending Minneapolis Center
Sat 07:16:53 PM 44.7550 -94.9292 96° East 469 540 20,900 -2,390 Descending Minneapolis Center
Sat 07:17:54 PM 44.7436 -94.7592 95° East 447 514 18,400 -2,323 Descending Minneapolis Center
Sat 07:18:57 PM 44.7292 -94.5775 96° East 430 495 16,100 -2,256 Descending Minneapolis Center
Sat 07:19:59 PM 44.7158 -94.4233 97° East 399 459 13,700 -2,118 Descending Minneapolis Center
Sat 07:21:13 PM 44.7033 -94.2714 97° East 393 452 11,300 -1,412 Descending Minneapolis Center
Sat 07:22:15 PM 44.7114 -94.0733 87° East 351 404 10,500 -838 Descending Minneapolis Center
Sat 07:23:29 PM 44.7389 -93.9544 72° East 320 368 9,400 -1,412 Descending Minneapolis Center
Sat 07:24:31 PM 44.7892 -93.8383 59° Northeast 293 337 7,300 -1,161 Descending Minneapolis Center
Sat 07:25:33 PM 44.8458 -93.7744 39° Northeast 256 295 7,000 -146 Descending Minneapolis Center
Sat 07:26:34 PM 44.8842 -93.7292 40° Northeast 230 265 7,000  Level Minneapolis Center
Sat 07:27:37 PM 44.9397 -93.6675 38° Northeast 212 244 7,000 -720 Level Minneapolis Center
Sat 07:28:39 PM 44.9525 -93.5792 78° East 207 238 5,500 -1,171 Descending Minneapolis Center
Sat 07:29:40 PM 44.9517 -93.5042 91° East 191 220 4,600 -829 Descending Minneapolis Center
Sat 07:30:42 PM 44.9483 -93.4344 94° East 180 207 3,800 -774 Descending Minneapolis Center

Login

Don't have an account? Register now (free) for customized features, flight alerts, and more!